createdAt,value
2022-12-27T00:01:29.000Z,3.07
2022-12-27T00:03:47.000Z,1.98
2022-12-27T00:06:14.000Z,2.85
2022-12-27T00:08:37.000Z,2.4
2022-12-27T00:11:04.000Z,2.65
2022-12-27T00:13:28.000Z,2.7
2022-12-27T00:15:55.000Z,2.8
2022-12-27T00:18:20.000Z,2.2
2022-12-27T00:20:46.000Z,2.3
2022-12-27T00:23:12.000Z,3.85
2022-12-27T00:25:37.000Z,3.5
2022-12-27T00:28:02.000Z,2.33
2022-12-27T00:30:31.000Z,1.92
2022-12-27T00:32:54.000Z,4.87
2022-12-27T00:35:20.000Z,4.7
2022-12-27T00:37:45.000Z,2.8
2022-12-27T00:40:13.000Z,3.3
2022-12-27T00:42:37.000Z,2.5
2022-12-27T00:45:02.000Z,4.3
2022-12-27T00:47:28.000Z,2.4
2022-12-27T00:49:54.000Z,3.4
2022-12-27T00:52:22.000Z,5.08
2022-12-27T00:54:46.000Z,5.1
2022-12-27T00:57:12.000Z,4.05
2022-12-27T00:59:45.000Z,5.08
2022-12-27T01:02:05.000Z,4.08
2022-12-27T01:04:30.000Z,3.6
2022-12-27T01:06:54.000Z,5.2
2022-12-27T01:09:21.000Z,7
2022-12-27T01:11:47.000Z,6.7
2022-12-27T01:14:18.000Z,5.2
2022-12-27T01:16:40.000Z,3.8
2022-12-27T01:19:28.000Z,5.65
2022-12-27T01:26:24.000Z,5.33
2022-12-27T01:28:48.000Z,6.93
2022-12-27T01:31:13.000Z,8.13
2022-12-27T01:33:38.000Z,7.6
2022-12-27T01:36:05.000Z,10.18
2022-12-27T01:38:30.000Z,5.37
2022-12-27T01:40:56.000Z,7.8
2022-12-27T01:43:22.000Z,7.03
2022-12-27T01:45:48.000Z,7
2022-12-27T01:48:14.000Z,7.07
2022-12-27T01:50:40.000Z,10.18
2022-12-27T01:53:05.000Z,5.53
2022-12-27T01:55:32.000Z,6.83
2022-12-27T01:57:57.000Z,7.5
2022-12-27T02:00:37.000Z,6.37
2022-12-27T02:02:48.000Z,7.87
2022-12-27T02:05:14.000Z,9.25
2022-12-27T02:07:39.000Z,8.53
2022-12-27T02:10:06.000Z,9.43
2022-12-27T02:12:31.000Z,10.28
2022-12-27T02:14:57.000Z,9.27
2022-12-27T02:17:23.000Z,12.4
2022-12-27T02:19:48.000Z,10
2022-12-27T02:22:16.000Z,10.63
2022-12-27T02:24:41.000Z,11.7
2022-12-27T02:27:06.000Z,12.97
2022-12-27T02:29:31.000Z,12.37
2022-12-27T02:31:58.000Z,12.33
2022-12-27T02:34:24.000Z,13.78
2022-12-27T02:36:49.000Z,12.73
2022-12-27T02:39:15.000Z,13.78
2022-12-27T02:41:40.000Z,12.03
2022-12-27T02:44:07.000Z,13.67
2022-12-27T02:46:35.000Z,11.17
2022-12-27T02:48:57.000Z,12.45
2022-12-27T02:51:24.000Z,11.65
2022-12-27T02:53:50.000Z,10
2022-12-27T02:56:16.000Z,9.63
2022-12-27T02:58:42.000Z,16.17
2022-12-27T03:01:09.000Z,14.07
2022-12-27T03:03:33.000Z,11.68
2022-12-27T03:05:58.000Z,14.33
2022-12-27T03:08:25.000Z,11.75
2022-12-27T03:10:51.000Z,13.55
2022-12-27T03:13:17.000Z,15.35
2022-12-27T03:15:55.000Z,12.63
2022-12-27T03:18:09.000Z,15.67
2022-12-27T03:20:37.000Z,15.08
2022-12-27T03:23:02.000Z,16.12
2022-12-27T03:25:27.000Z,12.75
2022-12-27T03:27:53.000Z,11.8
2022-12-27T03:30:21.000Z,12.6
2022-12-27T03:32:44.000Z,11.93
2022-12-27T03:35:11.000Z,10.45
2022-12-27T03:37:36.000Z,14.93
2022-12-27T03:40:02.000Z,12.98
2022-12-27T03:42:27.000Z,13.7
2022-12-27T03:44:53.000Z,11.73
2022-12-27T03:47:19.000Z,10.15
2022-12-27T03:49:44.000Z,8.23
2022-12-27T03:52:10.000Z,8.53
2022-12-27T03:54:37.000Z,15.15
2022-12-27T03:57:01.000Z,10.07
2022-12-27T03:59:28.000Z,12.33
2022-12-27T04:01:57.000Z,11.88
2022-12-27T04:04:19.000Z,12.82
2022-12-27T04:06:45.000Z,16.4
2022-12-27T04:09:10.000Z,17.23
2022-12-27T04:11:37.000Z,22.52
2022-12-27T04:14:02.000Z,17.48
2022-12-27T04:16:28.000Z,11.03
2022-12-27T04:18:53.000Z,10.8
2022-12-27T04:21:19.000Z,10.78
2022-12-27T04:23:46.000Z,10.45
2022-12-27T04:26:11.000Z,10.4
2022-12-27T04:28:36.000Z,10.8
2022-12-27T04:31:03.000Z,10.77
2022-12-27T04:33:31.000Z,10.03
2022-12-27T04:35:55.000Z,12.68
2022-12-27T04:38:20.000Z,18.5
2022-12-27T04:40:46.000Z,19.67
2022-12-27T04:43:12.000Z,23.57
2022-12-27T04:46:47.000Z,23.83
2022-12-27T04:48:03.000Z,17.12
2022-12-27T04:50:29.000Z,15.1
2022-12-27T04:52:54.000Z,20.6
2022-12-27T04:55:21.000Z,19.3
2022-12-27T04:57:46.000Z,29.63
2022-12-27T05:00:22.000Z,40.35
2022-12-27T05:02:38.000Z,39.53
2022-12-27T05:05:03.000Z,55.23
2022-12-27T05:07:29.000Z,37.2
2022-12-27T05:09:54.000Z,30.97
2022-12-27T05:12:20.000Z,19.82
2022-12-27T05:14:46.000Z,40.43
2022-12-27T05:17:13.000Z,23.77
2022-12-27T05:19:38.000Z,23.4
2022-12-27T05:22:04.000Z,30.45
2022-12-27T05:24:29.000Z,23.27
2022-12-27T05:26:55.000Z,24.9
2022-12-27T05:29:21.000Z,23.65
2022-12-27T05:31:47.000Z,-1
2022-12-27T05:34:12.000Z,-1
2022-12-27T05:36:38.000Z,-1
2022-12-27T05:39:05.000Z,-1
2022-12-27T05:41:30.000Z,-1
2022-12-27T05:43:56.000Z,-1
2022-12-27T05:46:22.000Z,-1
2022-12-27T05:48:48.000Z,-1
2022-12-27T05:51:14.000Z,32.4
2022-12-27T05:53:39.000Z,-1
2022-12-27T05:56:06.000Z,-1
2022-12-27T05:58:31.000Z,25.07
2022-12-27T06:01:27.000Z,24.87
2022-12-27T06:04:03.000Z,26.02
2022-12-27T06:05:49.000Z,22
2022-12-27T06:08:14.000Z,18.48
2022-12-27T06:10:42.000Z,22.63
2022-12-27T06:13:05.000Z,20.4
2022-12-27T06:15:37.000Z,14.07
2022-12-27T06:18:27.000Z,14.18
2022-12-27T06:20:23.000Z,16.73
2022-12-27T06:22:49.000Z,18.65
2022-12-27T06:25:15.000Z,17.37
2022-12-27T06:27:40.000Z,12.73
2022-12-27T06:30:08.000Z,23.93
2022-12-27T06:32:32.000Z,18.65
2022-12-27T06:34:57.000Z,15.72
2022-12-27T06:37:24.000Z,14
2022-12-27T06:39:50.000Z,18.85
2022-12-27T06:42:15.000Z,15.7
2022-12-27T06:44:41.000Z,12.6
2022-12-27T06:47:42.000Z,13.73
2022-12-27T06:49:33.000Z,18.7
2022-12-27T06:51:59.000Z,16.5
2022-12-27T06:56:56.000Z,21.17
2022-12-27T06:59:20.000Z,22.9
2022-12-27T07:01:58.000Z,22.25
2022-12-27T07:04:19.000Z,26.87
2022-12-27T07:06:35.000Z,24.95
2022-12-27T07:09:00.000Z,27.57
2022-12-27T07:11:27.000Z,23
2022-12-27T07:13:56.000Z,39.63
2022-12-27T07:16:20.000Z,54.03
2022-12-27T07:18:44.000Z,55.7
2022-12-27T07:21:11.000Z,40.85
2022-12-27T07:23:35.000Z,34.43
2022-12-27T07:26:02.000Z,37.05
2022-12-27T07:28:28.000Z,34.73
2022-12-27T07:30:54.000Z,31.33
2022-12-27T07:33:20.000Z,52.33
2022-12-27T07:35:46.000Z,52.08
2022-12-27T07:38:12.000Z,50.23
2022-12-27T07:40:37.000Z,48
2022-12-27T07:43:03.000Z,47.07
2022-12-27T07:45:28.000Z,41.65
2022-12-27T07:47:54.000Z,30.88
2022-12-27T07:50:20.000Z,28.12
2022-12-27T07:52:46.000Z,20.4
2022-12-27T07:55:12.000Z,23.7
2022-12-27T07:57:37.000Z,18.67
2022-12-27T08:00:04.000Z,17.32
2022-12-27T08:02:28.000Z,18.7
2022-12-27T08:04:54.000Z,21.97
2022-12-27T08:07:21.000Z,22.3
2022-12-27T08:09:47.000Z,22
2022-12-27T08:12:11.000Z,17.87
2022-12-27T08:14:38.000Z,19.83
2022-12-27T08:17:03.000Z,16.27
2022-12-27T08:19:38.000Z,13.2
2022-12-27T08:21:56.000Z,15.6
2022-12-27T08:24:20.000Z,15.8
2022-12-27T08:26:48.000Z,12.4
2022-12-27T08:29:13.000Z,16.95
2022-12-27T08:31:38.000Z,12.45
2022-12-27T08:34:03.000Z,10.45
2022-12-27T08:36:29.000Z,10.05
2022-12-27T08:38:55.000Z,13
2022-12-27T08:41:21.000Z,11.6
2022-12-27T08:43:47.000Z,11.1
2022-12-27T08:46:13.000Z,11.1
2022-12-27T08:48:39.000Z,13.53
2022-12-27T08:51:05.000Z,15.6
2022-12-27T08:53:29.000Z,13.3
2022-12-27T08:55:56.000Z,13.93
2022-12-27T08:58:22.000Z,12.85
2022-12-27T09:00:51.000Z,13.1
2022-12-27T09:03:13.000Z,10.07
2022-12-27T09:05:39.000Z,10.73
2022-12-27T09:08:04.000Z,9.03
2022-12-27T09:10:30.000Z,10.85
2022-12-27T09:12:56.000Z,11.13
2022-12-27T09:15:22.000Z,10
2022-12-27T09:18:02.000Z,13.53
2022-12-27T09:20:17.000Z,12.25
2022-12-27T09:22:52.000Z,9.9
2022-12-27T09:25:05.000Z,9.37
2022-12-27T09:27:30.000Z,14.85
2022-12-27T09:29:57.000Z,15.48
2022-12-27T09:32:22.000Z,13.98
2022-12-27T09:34:47.000Z,14.9
2022-12-27T09:37:14.000Z,16.05
2022-12-27T09:40:01.000Z,15.1
2022-12-27T09:42:05.000Z,15.2
2022-12-27T09:44:30.000Z,11.43
2022-12-27T09:46:56.000Z,11.38
2022-12-27T09:49:31.000Z,10.23
2022-12-27T09:51:52.000Z,13.9
2022-12-27T09:54:14.000Z,14.47
2022-12-27T09:56:40.000Z,16.07
2022-12-27T09:59:08.000Z,16.42
2022-12-27T10:01:52.000Z,15.45
2022-12-27T10:03:57.000Z,22.2
2022-12-27T10:06:27.000Z,16.1
2022-12-27T10:08:49.000Z,19.07
2022-12-27T10:11:17.000Z,15.93
2022-12-27T10:14:18.000Z,14.05
2022-12-27T10:16:06.000Z,13.1
2022-12-27T10:18:32.000Z,14.03
2022-12-27T10:20:58.000Z,11.2
2022-12-27T10:23:28.000Z,13.17
2022-12-27T10:25:49.000Z,12.73
2022-12-27T10:28:15.000Z,15.48
2022-12-27T10:30:40.000Z,13.88
2022-12-27T10:33:06.000Z,17.25
2022-12-27T10:35:31.000Z,14.77
2022-12-27T10:37:57.000Z,15.57
2022-12-27T10:40:26.000Z,13.1
2022-12-27T10:42:48.000Z,12.75
2022-12-27T10:45:15.000Z,13.47
2022-12-27T10:47:40.000Z,13.6
2022-12-27T10:50:06.000Z,11.93
2022-12-27T10:52:32.000Z,11.57
2022-12-27T10:55:08.000Z,8.1
2022-12-27T10:57:24.000Z,9.9
2022-12-27T10:59:51.000Z,11.4
2022-12-27T11:02:15.000Z,8.53
2022-12-27T11:04:40.000Z,12.68
2022-12-27T11:07:07.000Z,13.13
2022-12-27T11:09:32.000Z,11.15
2022-12-27T11:11:58.000Z,11.12
2022-12-27T11:14:23.000Z,15.13
2022-12-27T11:16:49.000Z,19.33
2022-12-27T11:19:15.000Z,15.25
2022-12-27T11:21:42.000Z,14.83
2022-12-27T11:24:07.000Z,15.95
2022-12-27T11:26:32.000Z,15.37
2022-12-27T11:28:59.000Z,15.43
2022-12-27T11:31:25.000Z,18.07
2022-12-27T11:33:50.000Z,17.2
2022-12-27T11:36:16.000Z,16.2
2022-12-27T11:38:42.000Z,16.17
2022-12-27T11:41:09.000Z,17.87
2022-12-27T11:43:33.000Z,17.3
2022-12-27T11:45:59.000Z,15.45
2022-12-27T11:48:25.000Z,15.53
2022-12-27T11:50:50.000Z,17.47
2022-12-27T11:53:16.000Z,18.8
2022-12-27T11:55:42.000Z,14.63
2022-12-27T11:58:08.000Z,14.23
2022-12-27T12:00:58.000Z,19.03
2022-12-27T12:03:07.000Z,17.07
2022-12-27T12:05:25.000Z,18.5
2022-12-27T12:07:51.000Z,17.85
2022-12-27T12:10:18.000Z,14.93
2022-12-27T12:12:42.000Z,14.3
2022-12-27T12:15:10.000Z,15.15
2022-12-27T12:17:35.000Z,15.4
2022-12-27T12:20:00.000Z,15.08
2022-12-27T12:22:26.000Z,15.48
2022-12-27T12:24:52.000Z,15.28
2022-12-27T12:27:20.000Z,15.7
2022-12-27T12:29:44.000Z,14.45
2022-12-27T12:32:09.000Z,16.57
2022-12-27T12:34:34.000Z,14.27
2022-12-27T12:37:01.000Z,13.8
2022-12-27T12:39:26.000Z,13.85
2022-12-27T12:41:51.000Z,14.8
2022-12-27T12:44:18.000Z,12.57
2022-12-27T12:46:43.000Z,14.25
2022-12-27T12:49:13.000Z,15.32
2022-12-27T12:51:38.000Z,12.1
2022-12-27T12:54:01.000Z,12.85
2022-12-27T12:56:27.000Z,14.6
2022-12-27T12:58:55.000Z,11.77
2022-12-27T13:01:30.000Z,10.9
2022-12-27T13:03:47.000Z,11.93
2022-12-27T13:06:15.000Z,12.5
2022-12-27T13:08:39.000Z,11.37
2022-12-27T13:11:05.000Z,10.8
2022-12-27T13:13:31.000Z,13.83
2022-12-27T13:15:57.000Z,12.65
2022-12-27T13:18:22.000Z,9.5
2022-12-27T13:20:52.000Z,8.63
2022-12-27T13:23:14.000Z,10.53
2022-12-27T13:25:41.000Z,9.33
2022-12-27T13:28:06.000Z,10.15
2022-12-27T13:30:37.000Z,10.7
2022-12-27T13:32:57.000Z,11.07
2022-12-27T13:35:23.000Z,9.55
2022-12-27T13:37:48.000Z,11.08
2022-12-27T13:40:19.000Z,8.98
2022-12-27T13:42:41.000Z,11.9
2022-12-27T13:45:06.000Z,9.03
2022-12-27T13:47:31.000Z,11.03
2022-12-27T13:50:00.000Z,10.8
2022-12-27T13:52:23.000Z,9.98
2022-12-27T13:54:49.000Z,9.37
2022-12-27T13:57:15.000Z,9.97
2022-12-27T13:59:48.000Z,9.7
2022-12-27T14:02:06.000Z,8.98
2022-12-27T14:04:31.000Z,11.33
2022-12-27T14:06:57.000Z,9.7
2022-12-27T14:09:23.000Z,14.07
2022-12-27T14:11:50.000Z,11.1
2022-12-27T14:14:15.000Z,10.05
2022-12-27T14:16:40.000Z,11.13
2022-12-27T14:19:06.000Z,10.83
2022-12-27T14:21:31.000Z,9.78
2022-12-27T14:23:58.000Z,11.73
2022-12-27T14:26:24.000Z,10.2
2022-12-27T14:28:49.000Z,12.18
2022-12-27T14:31:16.000Z,10.2
2022-12-27T14:33:41.000Z,8.7
2022-12-27T14:36:07.000Z,10.03
2022-12-27T14:38:32.000Z,9.05
2022-12-27T14:40:58.000Z,9.98
2022-12-27T14:43:24.000Z,7.63
2022-12-27T14:45:49.000Z,8.87
2022-12-27T14:48:16.000Z,7.92
2022-12-27T14:50:41.000Z,10.03
2022-12-27T14:53:07.000Z,10.55
2022-12-27T14:55:32.000Z,10.75
2022-12-27T14:57:59.000Z,11.1
2022-12-27T15:00:37.000Z,11.18
2022-12-27T15:02:50.000Z,10.2
2022-12-27T15:05:16.000Z,11.23
2022-12-27T15:07:41.000Z,8.8
2022-12-27T15:10:09.000Z,7.95
2022-12-27T15:12:32.000Z,9.23
2022-12-27T15:14:59.000Z,8.63
2022-12-27T15:17:24.000Z,9.23
2022-12-27T15:19:50.000Z,8.68
2022-12-27T15:22:18.000Z,8.6
2022-12-27T15:24:41.000Z,6.12
2022-12-27T15:27:08.000Z,7.47
2022-12-27T15:29:33.000Z,9
2022-12-27T15:32:00.000Z,9.53
2022-12-27T15:34:25.000Z,8.47
2022-12-27T15:36:51.000Z,10.38
2022-12-27T15:39:20.000Z,7.45
2022-12-27T15:41:42.000Z,6.17
2022-12-27T15:44:08.000Z,10.05
2022-12-27T15:46:34.000Z,8.73
2022-12-27T15:49:00.000Z,8.93
2022-12-27T15:51:26.000Z,9.78
2022-12-27T15:53:50.000Z,8.95
2022-12-27T15:56:16.000Z,9.7
2022-12-27T15:58:42.000Z,9.45
2022-12-27T16:01:39.000Z,9.6
2022-12-27T16:03:40.000Z,9.6
2022-12-27T16:05:59.000Z,12.05
2022-12-27T16:08:27.000Z,9.5
2022-12-27T16:10:52.000Z,8.23
2022-12-27T16:13:16.000Z,8.67
2022-12-27T16:15:43.000Z,9.27
2022-12-27T16:18:09.000Z,9.6
2022-12-27T16:20:35.000Z,8.33
2022-12-27T16:23:00.000Z,8.2
2022-12-27T16:25:25.000Z,8.28
2022-12-27T16:27:55.000Z,8.65
2022-12-27T16:30:20.000Z,9.78
2022-12-27T16:32:44.000Z,9.23
2022-12-27T16:35:10.000Z,9.63
2022-12-27T16:37:36.000Z,10.3
2022-12-27T16:40:00.000Z,9.43
2022-12-27T16:42:27.000Z,7.07
2022-12-27T16:44:53.000Z,9.1
2022-12-27T16:47:19.000Z,8.88
2022-12-27T16:49:45.000Z,8.35
2022-12-27T16:52:12.000Z,9.2
2022-12-27T16:54:36.000Z,7.07
2022-12-27T16:57:01.000Z,6.87
2022-12-27T16:59:27.000Z,9.38
2022-12-27T17:01:54.000Z,10.15
2022-12-27T17:04:19.000Z,6.5
2022-12-27T17:06:45.000Z,8.9
2022-12-27T17:09:11.000Z,7.8
2022-12-27T17:11:37.000Z,8.05
2022-12-27T17:14:02.000Z,7.37
2022-12-27T17:16:29.000Z,8.7
2022-12-27T17:18:55.000Z,7.6
2022-12-27T17:21:25.000Z,7.8
2022-12-27T17:23:54.000Z,6.7
2022-12-27T17:26:13.000Z,7.55
2022-12-27T17:28:39.000Z,6.25
2022-12-27T17:31:04.000Z,7.33
2022-12-27T17:33:29.000Z,6.83
2022-12-27T17:35:55.000Z,5.8
2022-12-27T17:38:21.000Z,9.38
2022-12-27T17:40:49.000Z,6.33
2022-12-27T17:43:14.000Z,5.93
2022-12-27T17:45:40.000Z,8.98
2022-12-27T17:48:04.000Z,6.72
2022-12-27T17:50:30.000Z,8.83
2022-12-27T17:52:56.000Z,5.27
2022-12-27T17:55:21.000Z,5.27
2022-12-27T17:57:47.000Z,7.35
2022-12-27T18:00:25.000Z,6.78
2022-12-27T18:02:39.000Z,6.95
2022-12-27T18:05:05.000Z,6.8
2022-12-27T18:07:30.000Z,7.1
2022-12-27T18:09:56.000Z,6.3
2022-12-27T18:12:22.000Z,8.9
2022-12-27T18:14:48.000Z,6.08
2022-12-27T18:17:17.000Z,7.33
2022-12-27T18:19:41.000Z,7.15
2022-12-27T18:22:04.000Z,7.47
2022-12-27T18:24:30.000Z,7.6
2022-12-27T18:26:56.000Z,6.58
2022-12-27T18:29:23.000Z,7
2022-12-27T18:31:48.000Z,8.2
2022-12-27T18:34:14.000Z,7.03
2022-12-27T18:36:39.000Z,6.7
2022-12-27T18:39:06.000Z,7.22
2022-12-27T18:41:31.000Z,7.92
2022-12-27T18:43:56.000Z,9.55
2022-12-27T18:46:22.000Z,7.3
2022-12-27T18:48:47.000Z,6.9
2022-12-27T18:51:13.000Z,7.8
2022-12-27T18:53:39.000Z,7
2022-12-27T18:56:07.000Z,8.33
2022-12-27T18:58:31.000Z,5.95
2022-12-27T19:00:58.000Z,11.83
2022-12-27T19:03:22.000Z,7.2
2022-12-27T19:05:48.000Z,7.45
2022-12-27T19:08:15.000Z,6.95
2022-12-27T19:10:40.000Z,6.83
2022-12-27T19:13:08.000Z,6.65
2022-12-27T19:15:31.000Z,6.45
2022-12-27T19:17:56.000Z,6.5
2022-12-27T19:20:23.000Z,6.47
2022-12-27T19:22:50.000Z,7.47
2022-12-27T19:25:18.000Z,8.25
2022-12-27T19:27:40.000Z,6.45
2022-12-27T19:30:06.000Z,7.73
2022-12-27T19:32:32.000Z,8.37
2022-12-27T19:34:57.000Z,6.42
2022-12-27T19:37:23.000Z,6.17
2022-12-27T19:39:49.000Z,7.62
2022-12-27T19:42:15.000Z,5.47
2022-12-27T19:44:41.000Z,6.67
2022-12-27T19:47:05.000Z,5.03
2022-12-27T19:49:32.000Z,5.6
2022-12-27T19:52:01.000Z,4.83
2022-12-27T19:54:24.000Z,5.6
2022-12-27T19:56:49.000Z,4.97
2022-12-27T19:59:17.000Z,8.83
2022-12-27T20:01:48.000Z,5
2022-12-27T20:04:06.000Z,4.93
2022-12-27T20:06:32.000Z,4.87
2022-12-27T20:08:57.000Z,5.1
2022-12-27T20:11:23.000Z,6
2022-12-27T20:13:49.000Z,5.33
2022-12-27T20:16:16.000Z,7.97
2022-12-27T20:18:47.000Z,5.67
2022-12-27T20:21:08.000Z,4.7
2022-12-27T20:24:45.000Z,6.92
2022-12-27T20:25:58.000Z,4.7
2022-12-27T20:28:24.000Z,4.78
2022-12-27T20:30:50.000Z,4.53
2022-12-27T20:33:15.000Z,5.5
2022-12-27T20:35:41.000Z,4.97
2022-12-27T20:38:07.000Z,5.47
2022-12-27T20:40:35.000Z,4.92
2022-12-27T20:42:59.000Z,6.03
2022-12-27T20:45:27.000Z,3.98
2022-12-27T20:47:50.000Z,6.6
2022-12-27T20:50:21.000Z,4.77
2022-12-27T20:52:42.000Z,5.4
2022-12-27T20:55:08.000Z,4.8
2022-12-27T20:57:33.000Z,5.35
2022-12-27T20:59:59.000Z,5.83
2022-12-27T21:02:24.000Z,5.43
2022-12-27T21:04:50.000Z,6.53
2022-12-27T21:07:16.000Z,6.47
2022-12-27T21:09:42.000Z,7.67
2022-12-27T21:12:10.000Z,6.17
2022-12-27T21:14:33.000Z,8.43
2022-12-27T21:16:59.000Z,6.37
2022-12-27T21:19:24.000Z,6.65
2022-12-27T21:21:50.000Z,8.1
2022-12-27T21:24:32.000Z,8.6
2022-12-27T21:26:42.000Z,12.8
2022-12-27T21:29:08.000Z,7.7
2022-12-27T21:31:33.000Z,7.17
2022-12-27T21:33:59.000Z,6.85
2022-12-27T21:36:25.000Z,7.72
2022-12-27T21:38:51.000Z,6.63
2022-12-27T21:41:16.000Z,7.6
2022-12-27T21:43:43.000Z,6.35
2022-12-27T21:46:08.000Z,7.85
2022-12-27T21:48:33.000Z,7.75
2022-12-27T21:50:59.000Z,7.42
2022-12-27T21:53:51.000Z,10.47
2022-12-27T21:55:51.000Z,7.8
2022-12-27T21:58:17.000Z,6.95
2022-12-27T22:00:56.000Z,7.28
2022-12-27T22:03:11.000Z,8.53
2022-12-27T22:05:37.000Z,8
2022-12-27T22:08:03.000Z,7.83
2022-12-27T22:10:28.000Z,7.3
2022-12-27T22:12:54.000Z,8.15
2022-12-27T22:15:20.000Z,6.15
2022-12-27T22:17:46.000Z,8.25
2022-12-27T22:20:14.000Z,8.05
2022-12-27T22:22:38.000Z,7.95
2022-12-27T22:25:02.000Z,6.47
2022-12-27T22:27:29.000Z,9.1
2022-12-27T22:29:54.000Z,9.43
2022-12-27T22:32:21.000Z,7.97
2022-12-27T22:34:47.000Z,8.65
2022-12-27T22:37:12.000Z,11.63
2022-12-27T22:39:37.000Z,7.75
2022-12-27T22:42:04.000Z,9.08
2022-12-27T22:44:29.000Z,9.33
2022-12-27T22:46:55.000Z,10.6
2022-12-27T22:49:21.000Z,10.03
2022-12-27T22:51:46.000Z,8.88
2022-12-27T22:54:12.000Z,7.15
2022-12-27T22:56:38.000Z,9.83
2022-12-27T22:59:05.000Z,8.57
2022-12-27T23:01:42.000Z,8.67
2022-12-27T23:03:55.000Z,9.63
2022-12-27T23:06:21.000Z,7.92
2022-12-27T23:08:46.000Z,7.67
2022-12-27T23:11:13.000Z,15.45
2022-12-27T23:13:39.000Z,9.98
2022-12-27T23:16:04.000Z,13.27
2022-12-27T23:18:30.000Z,12.27
2022-12-27T23:20:55.000Z,10.87
2022-12-27T23:24:36.000Z,11.5
2022-12-27T23:25:47.000Z,11.2
2022-12-27T23:28:17.000Z,9.65
2022-12-27T23:30:40.000Z,11.6
2022-12-27T23:33:05.000Z,10.82
2022-12-27T23:35:31.000Z,12.07
2022-12-27T23:37:57.000Z,15.08
2022-12-27T23:40:24.000Z,12.73
2022-12-27T23:42:48.000Z,14.3
2022-12-27T23:45:17.000Z,11.15
2022-12-27T23:47:39.000Z,13.83
2022-12-27T23:50:06.000Z,15.3
2022-12-27T23:52:32.000Z,14.83
2022-12-27T23:54:57.000Z,15.13
2022-12-27T23:57:22.000Z,12
2022-12-27T23:59:51.000Z,13.55
